createdAt,value
2022-10-26T00:01:17.027Z,9.93
2022-10-26T00:03:48.059Z,11.00
2022-10-26T00:06:19.273Z,9.90
2022-10-26T00:08:49.703Z,10.23
2022-10-26T00:11:20.411Z,11.70
2022-10-26T00:13:50.679Z,10.45
2022-10-26T00:16:27.961Z,9.68
2022-10-26T00:18:58.390Z,9.43
2022-10-26T00:21:28.550Z,8.43
2022-10-26T00:23:58.540Z,9.90
2022-10-26T00:26:29.090Z,9.93
2022-10-26T00:28:59.299Z,10.32
2022-10-26T00:31:29.413Z,7.67
2022-10-26T00:33:59.924Z,10.65
2022-10-26T00:36:30.727Z,9.70
2022-10-26T00:39:01.205Z,8.05
2022-10-26T00:41:32.631Z,10.65
2022-10-26T00:44:03.105Z,12.33
2022-10-26T00:46:34.950Z,9.38
2022-10-26T00:49:06.859Z,10.38
2022-10-26T00:51:38.788Z,8.98
2022-10-26T00:54:10.648Z,9.45
2022-10-26T00:56:41.966Z,10.23
2022-10-26T00:59:13.128Z,9.28
2022-10-26T01:01:44.558Z,8.78
2022-10-26T01:04:15.603Z,7.70
2022-10-26T01:06:45.731Z,8.33
2022-10-26T01:09:16.094Z,5.60
2022-10-26T01:11:46.888Z,6.15
2022-10-26T01:14:18.368Z,7.80
2022-10-26T01:16:52.548Z,6.37
2022-10-26T01:19:27.052Z,5.60
2022-10-26T01:21:58.441Z,5.53
2022-10-26T01:24:46.422Z,3.12
2022-10-26T01:27:20.639Z,4.40
2022-10-26T01:30:08.278Z,5.15
2022-10-26T01:32:39.775Z,3.65
2022-10-26T01:35:17.189Z,4.92
2022-10-26T01:37:54.880Z,4.03
2022-10-26T01:40:29.149Z,3.60
2022-10-26T01:43:00.575Z,3.75
2022-10-26T01:45:32.382Z,14.60
2022-10-26T01:48:04.367Z,28.10
2022-10-26T01:50:35.220Z,6.97
2022-10-26T01:53:05.223Z,3.87
2022-10-26T01:55:43.083Z,6.42
2022-10-26T01:58:15.068Z,2.87
2022-10-26T02:00:46.665Z,4.50
2022-10-26T02:03:19.364Z,4.62
2022-10-26T02:06:00.116Z,4.45
2022-10-26T02:08:34.261Z,3.30
2022-10-26T02:11:11.558Z,3.92
2022-10-26T02:13:45.708Z,4.45
2022-10-26T02:16:29.077Z,4.05
2022-10-26T02:19:00.694Z,8.15
2022-10-26T02:21:32.071Z,3.42
2022-10-26T02:24:02.243Z,3.87
2022-10-26T02:26:33.611Z,3.72
2022-10-26T02:29:08.260Z,3.22
2022-10-26T02:31:38.984Z,7.05
2022-10-26T02:34:10.610Z,5.17
2022-10-26T02:36:42.488Z,3.55
2022-10-26T02:39:15.125Z,2.98
2022-10-26T02:41:45.972Z,4.08
2022-10-26T02:44:26.488Z,3.10
2022-10-26T02:46:57.408Z,5.17
2022-10-26T02:49:29.859Z,5.78
2022-10-26T02:52:04.315Z,4.22
2022-10-26T02:54:35.693Z,4.65
2022-10-26T02:57:07.093Z,3.52
2022-10-26T02:59:38.693Z,5.35
2022-10-26T03:02:09.122Z,3.45
2022-10-26T03:04:39.332Z,3.98
2022-10-26T03:07:09.456Z,4.50
2022-10-26T03:09:42.288Z,3.55
2022-10-26T03:12:12.429Z,3.05
2022-10-26T03:14:42.521Z,3.55
2022-10-26T03:17:13.109Z,2.60
2022-10-26T03:19:43.304Z,4.80
2022-10-26T03:22:16.906Z,3.45
2022-10-26T03:24:47.045Z,4.85
2022-10-26T03:27:17.367Z,4.28
2022-10-26T03:29:47.405Z,2.08
2022-10-26T03:32:17.806Z,3.60
2022-10-26T03:34:48.475Z,3.72
2022-10-26T03:37:19.055Z,2.40
2022-10-26T03:39:49.599Z,3.50
2022-10-26T03:42:20.017Z,2.83
2022-10-26T03:44:50.503Z,5.42
2022-10-26T03:47:21.193Z,5.62
2022-10-26T03:49:54.647Z,3.60
2022-10-26T03:52:25.762Z,4.00
2022-10-26T03:54:58.781Z,4.00
2022-10-26T03:57:29.098Z,3.83
2022-10-26T03:59:59.899Z,2.40
2022-10-26T04:02:29.932Z,3.80
2022-10-26T04:05:07.181Z,2.37
2022-10-26T04:07:38.699Z,2.40
2022-10-26T04:10:10.370Z,4.25
2022-10-26T04:12:41.768Z,7.17
2022-10-26T04:15:13.119Z,9.08
2022-10-26T04:17:44.147Z,3.33
2022-10-26T04:20:15.802Z,6.00
2022-10-26T04:22:47.176Z,3.98
2022-10-26T04:25:18.470Z,2.45
2022-10-26T04:27:54.298Z,2.90
2022-10-26T04:30:25.702Z,2.50
2022-10-26T04:32:56.604Z,4.92
2022-10-26T04:35:28.241Z,5.62
2022-10-26T04:38:03.392Z,3.90
2022-10-26T04:40:35.238Z,5.58
2022-10-26T04:43:06.421Z,3.92
2022-10-26T04:45:37.600Z,3.77
2022-10-26T04:48:10.556Z,3.80
2022-10-26T04:50:42.031Z,4.35
2022-10-26T04:53:16.798Z,2.98
2022-10-26T04:55:47.882Z,3.27
2022-10-26T04:58:19.002Z,1.98
2022-10-26T05:00:51.150Z,3.12
2022-10-26T05:03:22.319Z,3.92
2022-10-26T05:05:53.158Z,3.70
2022-10-26T05:08:26.997Z,4.97
2022-10-26T05:10:58.723Z,4.45
2022-10-26T05:13:29.598Z,2.33
2022-10-26T05:16:00.357Z,3.30
2022-10-26T05:18:31.351Z,6.35
2022-10-26T05:21:22.860Z,4.17
2022-10-26T05:24:00.324Z,3.83
2022-10-26T05:26:31.471Z,3.35
2022-10-26T05:29:02.587Z,4.45
2022-10-26T05:31:34.449Z,4.15
2022-10-26T05:34:05.884Z,2.75
2022-10-26T05:36:41.090Z,3.15
2022-10-26T05:39:12.660Z,3.30
2022-10-26T05:41:43.510Z,2.65
2022-10-26T05:44:14.336Z,3.27
2022-10-26T05:46:47.127Z,3.98
2022-10-26T05:49:20.720Z,2.85
2022-10-26T05:51:52.613Z,4.28
2022-10-26T05:54:24.882Z,5.55
2022-10-26T05:56:56.407Z,3.25
2022-10-26T05:59:30.987Z,4.33
2022-10-26T06:02:23.674Z,4.15
2022-10-26T06:04:56.377Z,5.42
2022-10-26T06:07:32.065Z,3.67
2022-10-26T06:12:39.782Z,2.67
2022-10-26T06:15:13.183Z,3.20
2022-10-26T06:21:20.650Z,6.30
2022-10-26T06:23:57.103Z,2.62
2022-10-26T06:26:36.410Z,5.17
2022-10-26T06:29:16.001Z,4.40
2022-10-26T06:31:48.270Z,3.92
2022-10-26T06:34:23.446Z,3.75
2022-10-26T06:36:57.154Z,5.10
2022-10-26T06:39:32.131Z,5.65
2022-10-26T06:42:04.588Z,5.35
2022-10-26T06:44:36.073Z,5.53
2022-10-26T06:47:12.067Z,10.50
2022-10-26T06:49:57.554Z,6.05
2022-10-26T06:52:35.188Z,3.92
2022-10-26T06:55:08.939Z,3.83
2022-10-26T06:57:41.715Z,6.62
2022-10-26T07:00:24.365Z,3.65
2022-10-26T07:02:55.451Z,7.72
2022-10-26T07:05:26.562Z,7.37
2022-10-26T07:07:57.906Z,5.25
2022-10-26T07:10:28.896Z,4.60
2022-10-26T07:12:59.669Z,5.25
2022-10-26T07:15:32.517Z,5.72
2022-10-26T07:18:04.308Z,4.80
2022-10-26T07:20:39.420Z,6.00
2022-10-26T07:23:17.343Z,8.63
2022-10-26T07:25:48.710Z,7.97
2022-10-26T07:28:19.546Z,4.53
2022-10-26T07:30:55.860Z,5.40
2022-10-26T07:33:23.611Z,5.08
2022-10-26T07:35:55.274Z,5.70
2022-10-26T07:38:26.997Z,5.60
2022-10-26T07:40:58.075Z,5.22
2022-10-26T07:43:29.039Z,4.90
2022-10-26T07:45:59.807Z,5.72
2022-10-26T07:48:32.944Z,5.72
2022-10-26T07:51:05.168Z,3.98
2022-10-26T07:53:36.222Z,4.67
2022-10-26T07:56:07.600Z,4.28
2022-10-26T07:58:40.665Z,7.47
2022-10-26T08:01:18.800Z,4.47
2022-10-26T08:03:51.682Z,4.67
2022-10-26T08:06:26.338Z,5.00
2022-10-26T08:09:01.922Z,3.42
2022-10-26T08:11:33.125Z,3.85
2022-10-26T08:14:05.967Z,4.70
2022-10-26T08:16:38.145Z,8.60
2022-10-26T08:19:09.990Z,5.08
2022-10-26T08:21:41.072Z,9.90
2022-10-26T08:24:14.204Z,7.55
2022-10-26T08:26:47.295Z,8.03
2022-10-26T08:29:17.781Z,9.55
2022-10-26T08:31:49.929Z,5.15
2022-10-26T08:34:24.546Z,7.17
2022-10-26T08:36:59.190Z,7.05
2022-10-26T08:39:31.273Z,9.58
2022-10-26T08:42:07.687Z,6.00
2022-10-26T08:44:41.263Z,8.23
2022-10-26T08:47:20.532Z,6.50
2022-10-26T08:50:06.219Z,5.60
2022-10-26T08:52:42.304Z,7.40
2022-10-26T08:55:15.751Z,11.38
2022-10-26T08:57:49.366Z,8.75
2022-10-26T09:00:31.726Z,6.78
2022-10-26T09:03:00.875Z,6.40
2022-10-26T09:05:36.925Z,8.73
2022-10-26T09:08:19.319Z,6.97
2022-10-26T09:10:52.822Z,7.20
2022-10-26T09:13:38.678Z,8.85
2022-10-26T09:16:42.873Z,6.40
2022-10-26T09:19:28.340Z,6.47
2022-10-26T09:22:13.185Z,4.12
2022-10-26T09:24:46.826Z,5.00
2022-10-26T09:27:36.741Z,7.12
2022-10-26T09:30:10.045Z,7.92
2022-10-26T09:32:44.558Z,7.17
2022-10-26T09:35:25.798Z,7.10
2022-10-26T09:38:01.411Z,6.75
2022-10-26T09:40:40.786Z,6.83
2022-10-26T09:43:32.968Z,5.80
2022-10-26T09:46:03.781Z,4.33
2022-10-26T09:48:46.028Z,6.78
2022-10-26T09:51:19.688Z,5.95
2022-10-26T09:53:52.539Z,6.03
2022-10-26T09:56:24.887Z,6.40
2022-10-26T10:01:51.975Z,8.30
2022-10-26T10:04:25.272Z,6.80
2022-10-26T10:07:07.617Z,7.12
2022-10-26T10:09:41.947Z,9.23
2022-10-26T10:12:23.630Z,5.00
2022-10-26T10:15:02.051Z,5.10
2022-10-26T10:17:33.581Z,4.97
2022-10-26T10:20:13.861Z,6.30
2022-10-26T10:22:58.568Z,6.00
2022-10-26T10:25:41.164Z,6.85
2022-10-26T10:28:27.245Z,5.80
2022-10-26T10:31:04.513Z,6.55
2022-10-26T10:33:42.909Z,7.45
2022-10-26T10:36:22.918Z,9.45
2022-10-26T10:38:55.468Z,13.85
2022-10-26T10:41:37.339Z,13.75
2022-10-26T10:44:29.040Z,14.30
2022-10-26T10:47:08.880Z,12.63
2022-10-26T10:49:40.684Z,9.63
2022-10-26T10:52:13.505Z,12.53
2022-10-26T10:54:44.298Z,13.00
2022-10-26T10:57:26.726Z,10.85
2022-10-26T11:00:10.215Z,11.33
2022-10-26T11:03:05.067Z,10.48
2022-10-26T11:06:04.703Z,10.05
2022-10-26T11:09:17.199Z,6.37
2022-10-26T11:11:53.327Z,9.58
2022-10-26T11:14:37.459Z,7.62
2022-10-26T11:17:16.516Z,10.15
2022-10-26T11:19:52.274Z,8.03
2022-10-26T11:22:25.591Z,10.47
2022-10-26T11:25:04.656Z,9.63
2022-10-26T11:27:44.440Z,10.82
2022-10-26T11:30:26.987Z,8.65
2022-10-26T11:33:05.970Z,8.75
2022-10-26T11:35:43.790Z,12.03
2022-10-26T11:38:46.032Z,8.15
2022-10-26T11:41:34.830Z,10.20
2022-10-26T11:44:23.112Z,8.18
2022-10-26T11:47:05.430Z,9.55
2022-10-26T11:49:38.767Z,8.30
2022-10-26T11:52:19.144Z,9.48
2022-10-26T11:55:07.389Z,8.05
2022-10-26T11:57:40.140Z,9.48
2022-10-26T12:00:24.719Z,9.35
2022-10-26T12:03:07.029Z,10.30
2022-10-26T12:05:49.336Z,10.00
2022-10-26T12:08:28.738Z,7.92
2022-10-26T12:13:47.970Z,6.83
2022-10-26T12:16:26.556Z,8.10
2022-10-26T12:19:00.817Z,7.58
2022-10-26T12:21:33.230Z,6.50
2022-10-26T12:24:06.302Z,8.33
2022-10-26T12:26:39.660Z,9.03
2022-10-26T12:29:13.448Z,9.55
2022-10-26T12:31:45.730Z,8.35
2022-10-26T12:34:30.761Z,7.42
2022-10-26T12:37:04.083Z,9.73
2022-10-26T12:39:43.076Z,6.78
2022-10-26T12:42:22.107Z,9.30
2022-10-26T12:44:58.303Z,11.93
2022-10-26T12:47:34.529Z,11.28
2022-10-26T12:50:13.818Z,8.80
2022-10-26T12:53:03.927Z,7.60
2022-10-26T12:55:58.152Z,7.55
2022-10-26T12:58:53.128Z,6.90
2022-10-26T13:01:45.130Z,9.30
2022-10-26T13:04:24.322Z,11.88
2022-10-26T13:07:00.624Z,12.73
2022-10-26T13:09:35.306Z,9.55
2022-10-26T13:12:09.297Z,9.98
2022-10-26T13:14:42.666Z,12.13
2022-10-26T13:17:18.709Z,12.00
2022-10-26T13:19:58.456Z,10.50
2022-10-26T13:22:30.294Z,7.03
2022-10-26T13:25:06.822Z,9.50
2022-10-26T13:27:40.140Z,7.15
2022-10-26T13:30:16.946Z,8.98
2022-10-26T13:32:56.874Z,8.38
2022-10-26T13:35:28.703Z,9.10
2022-10-26T13:38:01.551Z,13.50
2022-10-26T13:40:33.563Z,8.18
2022-10-26T13:43:06.773Z,10.35
2022-10-26T13:45:47.198Z,8.48
2022-10-26T13:48:23.414Z,11.28
2022-10-26T13:51:07.109Z,8.45
2022-10-26T13:53:54.651Z,9.65
2022-10-26T13:57:03.266Z,10.72
2022-10-26T13:59:36.371Z,8.10
2022-10-26T14:02:22.928Z,8.45
2022-10-26T14:05:04.633Z,7.97
2022-10-26T14:07:49.471Z,10.23
2022-10-26T14:10:37.315Z,9.23
2022-10-26T14:13:13.317Z,10.28
2022-10-26T14:15:46.627Z,8.35
2022-10-26T14:18:25.284Z,9.98
2022-10-26T14:21:16.254Z,13.62
2022-10-26T14:23:55.883Z,13.40
2022-10-26T14:26:31.973Z,11.38
2022-10-26T14:29:03.942Z,12.85
2022-10-26T14:31:39.843Z,9.88
2022-10-26T14:34:15.105Z,8.30
2022-10-26T14:37:02.560Z,14.87
2022-10-26T14:39:47.874Z,10.13
2022-10-26T14:42:36.989Z,11.33
2022-10-26T14:45:18.953Z,11.90
2022-10-26T14:47:48.444Z,11.05
2022-10-26T14:50:24.411Z,16.23
2022-10-26T14:52:59.011Z,9.28
2022-10-26T14:55:30.464Z,9.70
2022-10-26T14:58:13.846Z,11.57
2022-10-26T15:00:49.622Z,9.38
2022-10-26T15:03:26.885Z,13.37
2022-10-26T15:05:59.179Z,11.83
2022-10-26T15:08:56.883Z,15.38
2022-10-26T15:11:26.244Z,9.80
2022-10-26T15:14:02.911Z,10.08
2022-10-26T15:19:28.389Z,12.10
2022-10-26T15:22:04.364Z,6.83
2022-10-26T15:24:43.090Z,10.00
2022-10-26T15:27:20.144Z,8.48
2022-10-26T15:29:55.094Z,7.95
2022-10-26T15:32:36.346Z,10.08
2022-10-26T15:35:25.102Z,11.63
2022-10-26T15:37:57.476Z,10.93
2022-10-26T15:40:29.914Z,12.85
2022-10-26T15:43:08.159Z,13.20
2022-10-26T15:45:40.451Z,12.40
2022-10-26T15:48:20.029Z,9.58
2022-10-26T15:50:50.820Z,9.75
2022-10-26T15:53:33.199Z,9.23
2022-10-26T15:56:08.485Z,9.68
2022-10-26T15:58:41.753Z,9.75
2022-10-26T16:01:24.635Z,12.07
2022-10-26T16:03:57.153Z,9.85
2022-10-26T16:06:33.209Z,10.32
2022-10-26T16:09:06.192Z,11.48
2022-10-26T16:11:36.988Z,10.32
2022-10-26T16:14:07.896Z,11.38
2022-10-26T16:16:44.762Z,10.23
2022-10-26T16:19:30.361Z,11.03
2022-10-26T16:21:49.180Z,10.30
2022-10-26T16:24:22.893Z,10.72
2022-10-26T16:26:53.688Z,9.93
2022-10-26T16:29:28.506Z,10.43
2022-10-26T16:32:00.101Z,9.85
2022-10-26T16:34:31.453Z,12.95
2022-10-26T16:37:04.855Z,10.03
2022-10-26T16:39:39.343Z,10.15
2022-10-26T16:42:10.105Z,9.00
2022-10-26T16:44:44.243Z,9.78
2022-10-26T16:47:15.170Z,17.50
2022-10-26T16:49:46.222Z,8.83
2022-10-26T16:52:17.017Z,10.48
2022-10-26T16:54:49.172Z,12.45
2022-10-26T16:57:19.971Z,10.58
2022-10-26T16:59:50.779Z,8.38
2022-10-26T17:02:25.198Z,12.58
2022-10-26T17:05:01.378Z,9.35
2022-10-26T17:07:31.205Z,11.57
2022-10-26T17:10:03.274Z,10.63
2022-10-26T17:12:36.979Z,11.50
2022-10-26T17:15:08.835Z,8.43
2022-10-26T17:17:42.714Z,10.40
2022-10-26T17:20:19.829Z,17.65
2022-10-26T17:22:51.043Z,8.80
2022-10-26T17:25:24.988Z,9.23
2022-10-26T17:27:57.047Z,9.40
2022-10-26T17:30:30.387Z,11.08
2022-10-26T17:33:01.189Z,10.20
2022-10-26T17:35:31.969Z,13.80
2022-10-26T17:38:03.324Z,12.40
2022-10-26T17:40:34.761Z,10.40
2022-10-26T17:43:05.555Z,13.40
2022-10-26T17:45:36.412Z,11.35
2022-10-26T17:48:07.396Z,14.20
2022-10-26T17:50:38.152Z,11.18
2022-10-26T17:53:09.618Z,12.07
2022-10-26T17:55:40.342Z,10.58
2022-10-26T17:58:11.144Z,12.65
2022-10-26T18:00:43.254Z,11.88
2022-10-26T18:03:14.315Z,13.75
2022-10-26T18:05:46.382Z,10.58
2022-10-26T18:08:17.191Z,12.07
2022-10-26T18:10:51.562Z,10.85
2022-10-26T18:13:22.452Z,10.05
2022-10-26T18:15:53.262Z,12.53
2022-10-26T18:18:23.969Z,11.03
2022-10-26T18:20:54.743Z,12.58
2022-10-26T18:23:25.524Z,10.35
2022-10-26T18:26:14.151Z,12.07
2022-10-26T18:28:47.019Z,9.98
2022-10-26T18:31:19.729Z,10.85
2022-10-26T18:33:52.892Z,8.78
2022-10-26T18:36:23.577Z,13.88
2022-10-26T18:38:54.381Z,7.55
2022-10-26T18:41:26.452Z,12.60
2022-10-26T18:43:59.862Z,8.28
2022-10-26T18:46:32.502Z,9.58
2022-10-26T18:49:04.817Z,7.62
2022-10-26T18:51:37.021Z,9.05
2022-10-26T18:54:07.912Z,9.75
2022-10-26T18:56:38.671Z,9.63
2022-10-26T18:59:14.307Z,7.80
2022-10-26T19:01:46.898Z,9.18
2022-10-26T19:04:18.013Z,7.62
2022-10-26T19:06:51.264Z,11.03
2022-10-26T19:09:22.398Z,8.60
2022-10-26T19:11:53.171Z,7.65
2022-10-26T19:14:23.857Z,7.72
2022-10-26T19:16:55.045Z,10.95
2022-10-26T19:19:26.430Z,8.43
2022-10-26T19:21:57.079Z,8.35
2022-10-26T19:24:27.983Z,7.83
2022-10-26T19:27:00.074Z,8.08
2022-10-26T19:29:30.876Z,10.03
2022-10-26T19:32:03.045Z,8.88
2022-10-26T19:34:33.978Z,7.72
2022-10-26T19:37:07.751Z,7.40
2022-10-26T19:39:39.216Z,6.83
2022-10-26T19:42:10.017Z,8.40
2022-10-26T19:44:41.559Z,10.40
2022-10-26T19:47:12.330Z,10.48
2022-10-26T19:49:43.112Z,8.03
2022-10-26T19:52:13.930Z,7.17
2022-10-26T19:54:44.790Z,10.68
2022-10-26T19:57:15.453Z,7.35
2022-10-26T19:59:46.307Z,12.65
2022-10-26T20:02:17.289Z,7.95
2022-10-26T20:04:48.182Z,7.65
2022-10-26T20:07:21.784Z,6.75
2022-10-26T20:09:52.424Z,6.67
2022-10-26T20:12:23.229Z,9.33
2022-10-26T20:14:53.986Z,8.53
2022-10-26T20:17:28.369Z,9.13
2022-10-26T20:19:59.855Z,12.88
2022-10-26T20:22:30.644Z,6.47
2022-10-26T20:25:01.510Z,8.40
2022-10-26T20:27:32.290Z,7.80
2022-10-26T20:30:03.101Z,10.18
2022-10-26T20:32:33.889Z,10.30
2022-10-26T20:35:04.694Z,7.50
2022-10-26T20:37:35.947Z,7.95
2022-10-26T20:40:07.594Z,9.18
2022-10-26T20:42:38.826Z,6.90
2022-10-26T20:45:12.356Z,6.83
2022-10-26T20:47:43.616Z,7.55
2022-10-26T20:50:15.443Z,10.80
2022-10-26T20:52:52.673Z,9.35
2022-10-26T20:55:31.718Z,9.33
2022-10-26T20:58:11.026Z,8.20
2022-10-26T21:00:44.390Z,7.15
2022-10-26T21:03:15.616Z,11.68
2022-10-26T21:05:49.225Z,10.68
2022-10-26T21:08:20.022Z,9.53
2022-10-26T21:10:52.792Z,7.65
2022-10-26T21:13:23.502Z,6.47
2022-10-26T21:15:54.160Z,10.65
2022-10-26T21:18:24.962Z,6.30
2022-10-26T21:20:57.037Z,7.90
2022-10-26T21:23:29.196Z,10.58
2022-10-26T21:25:59.986Z,14.03
2022-10-26T21:28:36.312Z,9.10
2022-10-26T21:31:09.119Z,7.33
2022-10-26T21:33:39.895Z,9.88
2022-10-26T21:36:15.552Z,7.35
2022-10-26T21:38:50.237Z,11.48
2022-10-26T21:41:22.454Z,13.62
2022-10-26T21:44:03.449Z,18.67
2022-10-26T21:46:26.705Z,19.15
2022-10-26T21:48:57.497Z,13.08
2022-10-26T21:51:28.184Z,7.53
2022-10-26T21:53:59.449Z,8.50
2022-10-26T21:56:31.094Z,10.93
2022-10-26T21:59:02.883Z,7.12
2022-10-26T22:01:33.754Z,9.85
2022-10-26T22:04:04.506Z,10.65
2022-10-26T22:06:38.136Z,7.83
2022-10-26T22:09:09.023Z,8.60
2022-10-26T22:11:39.795Z,6.70
2022-10-26T22:14:12.155Z,7.70
2022-10-26T22:16:42.966Z,6.55
2022-10-26T22:19:17.897Z,7.08
2022-10-26T22:21:48.674Z,8.53
2022-10-26T22:24:19.602Z,7.50
2022-10-26T22:26:50.404Z,10.48
2022-10-26T22:29:21.265Z,11.65
2022-10-26T22:31:52.032Z,10.98
2022-10-26T22:34:23.036Z,8.13
2022-10-26T22:36:53.807Z,8.30
2022-10-26T22:39:27.953Z,8.83
2022-10-26T22:41:58.827Z,7.30
2022-10-26T22:44:29.501Z,8.03
2022-10-26T22:47:01.812Z,8.95
2022-10-26T22:49:35.414Z,12.88
2022-10-26T22:52:06.326Z,11.78
2022-10-26T22:54:37.217Z,14.20
2022-10-26T22:57:08.083Z,14.25
2022-10-26T22:59:38.857Z,16.57
2022-10-26T23:02:10.285Z,12.75
2022-10-26T23:04:41.286Z,11.22
2022-10-26T23:07:12.092Z,12.28
2022-10-26T23:09:42.881Z,11.10
2022-10-26T23:12:34.275Z,12.18
2022-10-26T23:15:09.963Z,12.47
2022-10-26T23:17:39.827Z,14.25
2022-10-26T23:20:11.586Z,15.23
2022-10-26T23:22:42.315Z,14.47
2022-10-26T23:25:13.214Z,13.05
2022-10-26T23:27:44.008Z,12.25
2022-10-26T23:30:15.350Z,9.48
2022-10-26T23:32:46.249Z,10.25
2022-10-26T23:35:17.098Z,14.75
2022-10-26T23:37:47.904Z,11.73
2022-10-26T23:40:18.635Z,15.45
2022-10-26T23:42:49.780Z,14.05
2022-10-26T23:45:20.780Z,14.87
2022-10-26T23:47:51.802Z,15.83
2022-10-26T23:50:22.726Z,14.87
2022-10-26T23:52:53.518Z,14.93
2022-10-26T23:55:24.171Z,12.05
2022-10-26T23:57:55.154Z,15.35
